Time;durP1;ratioP1;P1;durP2;ratioP2;P2;SDS_P1;SDS_P2;PMS_P1;PMS_P2;Temp;Humidity;BMP_temperature;BMP_pressure;BME280_temperature;BME280_humidity;BME280_pressure;Samples;Min_cycle;Max_cycle;Signal;HPM_P1;HPM_P2
2023/06/22 00:01:22;;;;;;;1999.90;999.90;;;11.40;99.90;;;;;;5053656;28;20051;-71
2023/06/22 00:03:50;;;;;;;1999.90;999.90;;;11.60;99.90;;;;;;5055629;28;20071;-72
2023/06/22 00:06:17;;;;;;;1999.90;999.90;;;11.80;99.90;;;;;;5052171;28;20040;-73
2023/06/22 00:08:45;;;;;;;1999.90;999.90;;;12.00;99.90;;;;;;5052928;28;20029;-74
2023/06/22 00:11:12;;;;;;;1999.90;999.90;;;12.00;99.90;;;;;;5051770;28;20463;-73
2023/06/22 00:13:40;;;;;;;1999.90;999.90;;;12.00;99.90;;;;;;5047601;28;20032;-75
2023/06/22 00:16:07;;;;;;;1999.90;999.90;;;12.10;99.90;;;;;;5044514;28;22044;-71
2023/06/22 00:18:34;;;;;;;1999.90;999.90;;;12.20;99.90;;;;;;5058024;28;20404;-72
2023/06/22 00:21:02;;;;;;;1999.90;999.90;;;12.30;99.90;;;;;;5048961;28;20032;-72
2023/06/22 00:23:34;;;;;;;1999.90;999.90;;;12.40;99.90;;;;;;5056467;28;20476;-71
2023/06/22 00:26:01;;;;;;;1999.90;999.90;;;12.50;99.90;;;;;;5049640;28;20435;-71
2023/06/22 00:28:29;;;;;;;1999.90;999.90;;;12.60;99.90;;;;;;5051673;28;20569;-73
2023/06/22 00:30:56;;;;;;;1999.90;999.90;;;12.80;99.90;;;;;;5050466;28;20072;-74
2023/06/22 00:33:23;;;;;;;1999.90;999.90;;;13.00;99.90;;;;;;5051914;28;20048;-73
2023/06/22 00:35:52;;;;;;;1999.90;999.90;;;13.20;99.90;;;;;;5042213;28;20177;-74
2023/06/22 00:38:20;;;;;;;1999.90;999.90;;;13.50;99.90;;;;;;5052868;28;20021;-73
2023/06/22 00:40:47;;;;;;;1999.90;999.90;;;13.90;99.90;;;;;;5054693;28;20488;-74
2023/06/22 00:43:15;;;;;;;1999.90;999.90;;;14.70;99.90;;;;;;5055847;28;20029;-73
2023/06/22 00:45:42;;;;;;;1999.90;999.90;;;15.90;99.90;;;;;;5042764;28;20037;-72
2023/06/22 00:48:10;;;;;;;1999.90;999.90;;;16.80;99.70;;;;;;5050192;28;20032;-73
2023/06/22 00:50:38;;;;;;;1999.90;999.90;;;17.40;97.30;;;;;;5048303;28;20043;-73
2023/06/22 00:53:08;;;;;;;1999.90;999.90;;;17.40;96.10;;;;;;5062331;28;20067;-73
2023/06/22 00:55:43;;;;;;;1999.90;999.90;;;17.10;95.70;;;;;;5052326;28;20087;-76
2023/06/22 00:58:11;;;;;;;1999.90;999.90;;;16.70;95.80;;;;;;5058148;28;20028;-73
2023/06/22 01:00:39;;;;;;;1999.90;999.90;;;16.20;96.20;;;;;;5052564;28;20110;-72
2023/06/22 01:03:10;;;;;;;1999.90;999.90;;;16.00;96.50;;;;;;5057087;28;20106;-73
2023/06/22 01:05:38;;;;;;;1999.90;999.90;;;15.80;96.80;;;;;;5045916;28;20064;-71
2023/06/22 01:08:30;;;;;;;1999.90;999.90;;;15.60;97.20;;;;;;5048756;28;20496;-72
2023/06/22 01:11:13;;;;;;;1999.90;999.90;;;15.40;97.00;;;;;;5047961;28;20040;-71
2023/06/22 01:14:12;;;;;;;1999.90;999.90;;;15.30;97.40;;;;;;5049945;28;20468;-70
2023/06/22 01:16:44;;;;;;;1999.90;999.90;;;15.40;97.30;;;;;;5049188;28;20037;-70
2023/06/22 01:19:45;;;;;;;1999.90;999.90;;;15.50;97.40;;;;;;5060342;28;20029;-73
2023/06/22 01:22:16;;;;;;;1999.90;999.90;;;15.50;97.00;;;;;;5055261;28;20024;-73
2023/06/22 01:24:57;;;;;;;1999.90;999.90;;;15.30;96.70;;;;;;5055119;28;20468;-72
2023/06/22 01:27:41;;;;;;;1999.90;999.90;;;15.00;96.90;;;;;;5051895;28;20036;-76
2023/06/22 01:30:10;;;;;;;1999.90;999.90;;;14.90;97.20;;;;;;5058582;28;20025;-70
2023/06/22 01:32:39;;;;;;;1999.90;999.90;;;14.80;97.10;;;;;;5053371;28;20052;-70
2023/06/22 01:35:08;;;;;;;1999.90;999.90;;;14.80;97.50;;;;;;5058975;28;20035;-71
2023/06/22 01:37:38;;;;;;;1999.90;999.90;;;14.80;97.90;;;;;;5052957;28;20036;-71
2023/06/22 01:40:08;;;;;;;1999.90;999.90;;;15.00;97.70;;;;;;5059721;28;20045;-69
2023/06/22 01:42:37;;;;;;;1999.90;999.90;;;15.10;97.60;;;;;;5050580;28;20036;-70
2023/06/22 01:45:05;;;;;;;1999.90;999.90;;;15.30;97.50;;;;;;5056433;28;20071;-70
2023/06/22 01:47:34;;;;;;;1999.90;999.90;;;15.50;96.90;;;;;;5048638;28;20723;-70
2023/06/22 01:50:02;;;;;;;1999.90;999.90;;;15.60;97.10;;;;;;5050396;28;20097;-69
2023/06/22 01:52:29;;;;;;;1999.90;999.90;;;15.50;96.50;;;;;;5046338;28;20040;-73
2023/06/22 01:54:57;;;;;;;1999.90;999.90;;;15.50;96.60;;;;;;5053594;28;20484;-74
2023/06/22 01:57:25;;;;;;;1999.90;999.90;;;15.40;96.80;;;;;;5050918;28;20025;-75
2023/06/22 02:00:05;;;;;;;1999.90;999.90;;;15.30;96.90;;;;;;5061124;28;20025;-74
2023/06/22 02:02:52;;;;;;;1999.90;999.90;;;15.20;97.30;;;;;;5053919;28;20029;-73
2023/06/22 02:05:21;;;;;;;1999.90;999.90;;;15.20;97.20;;;;;;5052726;28;22353;-73
2023/06/22 02:08:34;;;;;;;1999.90;999.90;;;15.60;96.50;;;;;;5047482;28;20079;-73
2023/06/22 02:11:03;;;;;;;1999.90;999.90;;;15.90;96.20;;;;;;5049561;28;20064;-73
2023/06/22 02:13:31;;;;;;;1999.90;999.90;;;16.10;95.80;;;;;;5055056;28;20032;-72
2023/06/22 02:15:59;;;;;;;1999.90;999.90;;;16.00;95.80;;;;;;5049246;28;20487;-73
2023/06/22 02:18:26;;;;;;;1999.90;999.90;;;15.90;95.80;;;;;;5062361;28;20468;-73
2023/06/22 02:20:53;;;;;;;1999.90;999.90;;;15.80;96.10;;;;;;5058766;28;20487;-74
2023/06/22 02:23:21;;;;;;;1999.90;999.90;;;15.60;96.40;;;;;;5066186;28;20035;-73
2023/06/22 02:25:48;;;;;;;1999.90;999.90;;;15.50;96.80;;;;;;5049167;28;20047;-76
2023/06/22 02:28:15;;;;;;;1999.90;999.90;;;15.50;97.10;;;;;;5049570;28;20033;-75
2023/06/22 02:30:43;;;;;;;1999.90;999.90;;;15.50;97.00;;;;;;5060239;28;20025;-70
2023/06/22 02:33:10;;;;;;;1999.90;999.90;;;15.60;96.80;;;;;;5058960;28;20047;-70
2023/06/22 02:35:37;;;;;;;1999.90;999.90;;;16.00;96.70;;;;;;5054587;28;20087;-74
2023/06/22 02:38:05;;;;;;;1999.90;999.90;;;16.40;96.20;;;;;;5053190;28;20058;-71
2023/06/22 02:40:33;;;;;;;1999.90;999.90;;;16.90;96.10;;;;;;5055605;28;20033;-72
2023/06/22 02:43:02;;;;;;;1999.90;999.90;;;17.40;95.30;;;;;;5057921;28;20383;-77
2023/06/22 02:45:30;;;;;;;1999.90;999.90;;;17.40;94.80;;;;;;5053832;28;20104;-72
2023/06/22 02:47:57;;;;;;;1999.90;999.90;;;17.20;94.90;;;;;;5054546;28;20040;-74
2023/06/22 02:50:25;;;;;;;1999.90;999.90;;;17.00;95.30;;;;;;5055614;28;20032;-75
2023/06/22 02:52:52;;;;;;;1999.90;999.90;;;16.80;95.60;;;;;;5057997;28;20056;-75
2023/06/22 02:55:20;;;;;;;1999.90;999.90;;;16.60;95.80;;;;;;5054924;28;20047;-73
2023/06/22 02:57:47;;;;;;;1999.90;999.90;;;16.30;96.10;;;;;;5053832;28;20369;-72
2023/06/22 03:00:19;;;;;;;1999.90;999.90;;;16.00;96.60;;;;;;5038430;28;20041;-73
2023/06/22 03:02:47;;;;;;;1999.90;999.90;;;15.90;97.10;;;;;;5057921;28;20029;-72
2023/06/22 03:05:18;;;;;;;1999.90;999.90;;;15.90;97.00;;;;;;5054680;28;20131;-74
2023/06/22 03:07:46;;;;;;;1999.90;999.90;;;15.80;97.40;;;;;;5046927;28;20094;-73
2023/06/22 03:10:14;;;;;;;1999.90;999.90;;;15.70;97.70;;;;;;5051585;28;20021;-76
2023/06/22 03:12:42;;;;;;;1999.90;999.90;;;15.70;98.10;;;;;;5049004;28;20120;-75
2023/06/22 03:15:12;;;;;;;1999.90;999.90;;;15.70;97.60;;;;;;5051446;28;20037;-73
2023/06/22 03:17:41;;;;;;;1999.90;999.90;;;15.60;97.80;;;;;;5057986;28;20033;-72
2023/06/22 03:20:12;;;;;;;1999.90;999.90;;;15.40;97.80;;;;;;5050164;28;20428;-73
2023/06/22 03:22:41;;;;;;;1999.90;999.90;;;15.30;98.30;;;;;;5059342;28;20029;-73
2023/06/22 03:25:15;;;;;;;1999.90;999.90;;;15.20;98.50;;;;;;5054738;28;20071;-74
2023/06/22 03:27:43;;;;;;;1999.90;999.90;;;15.00;98.90;;;;;;5055042;28;20037;-70
2023/06/22 03:30:12;;;;;;;1999.90;999.90;;;14.90;98.80;;;;;;5051555;28;20395;-72
2023/06/22 03:32:40;;;;;;;1999.90;999.90;;;14.90;99.10;;;;;;5052363;28;20053;-71
2023/06/22 03:35:08;;;;;;;1999.90;999.90;;;14.90;99.40;;;;;;5055661;28;20041;-72
2023/06/22 03:37:35;;;;;;;1999.90;999.90;;;14.90;99.40;;;;;;5051030;28;20036;-72
2023/06/22 03:40:05;;;;;;;1999.90;999.90;;;14.80;99.30;;;;;;5053229;28;20028;-73
2023/06/22 03:42:37;;;;;;;1999.90;999.90;;;14.80;99.60;;;;;;5045222;28;20082;-74
2023/06/22 03:45:07;;;;;;;1999.90;999.90;;;14.70;99.50;;;;;;5057739;28;20021;-74
2023/06/22 03:47:34;;;;;;;1999.90;999.90;;;14.70;99.60;;;;;;5057954;28;20047;-72
2023/06/22 03:50:03;;;;;;;1999.90;999.90;;;14.70;99.70;;;;;;5053965;28;20032;-73
2023/06/22 03:52:31;;;;;;;1999.90;999.90;;;14.60;99.90;;;;;;5056272;28;20016;-73
2023/06/22 03:54:58;;;;;;;1999.90;999.90;;;14.60;99.80;;;;;;5051286;28;20048;-71
2023/06/22 03:57:25;;;;;;;1999.90;999.90;;;14.60;99.90;;;;;;5049474;28;20033;-71
2023/06/22 03:59:54;;;;;;;1999.90;999.90;;;14.60;99.90;;;;;;5060751;28;20030;-70
2023/06/22 04:02:22;;;;;;;1999.90;999.90;;;14.60;99.90;;;;;;5046998;28;20104;-74
2023/06/22 04:04:49;;;;;;;1999.90;999.90;;;14.50;99.90;;;;;;5061605;28;20116;-72
2023/06/22 04:07:17;;;;;;;1999.90;999.90;;;14.50;99.90;;;;;;5058224;28;20036;-72
2023/06/22 04:09:45;;;;;;;1999.90;999.90;;;14.50;99.90;;;;;;5055547;28;20023;-72
2023/06/22 04:12:12;;;;;;;1999.90;999.90;;;14.40;99.90;;;;;;5050926;28;21821;-74
2023/06/22 04:14:39;;;;;;;1999.90;999.90;;;14.50;99.90;;;;;;5056251;28;20033;-76
2023/06/22 04:17:07;;;;;;;1999.90;999.90;;;14.50;99.90;;;;;;5046628;28;20043;-73
2023/06/22 04:19:34;;;;;;;1999.90;999.90;;;14.40;99.90;;;;;;5052062;28;20016;-75
2023/06/22 04:22:01;;;;;;;1999.90;999.90;;;14.50;99.90;;;;;;5053679;28;20032;-75
2023/06/22 04:24:29;;;;;;;1999.90;999.90;;;14.50;99.90;;;;;;5057672;28;20048;-75
2023/06/22 04:26:56;;;;;;;1999.90;999.90;;;14.50;99.90;;;;;;5061824;28;20100;-75
2023/06/22 04:29:28;;;;;;;1999.90;999.90;;;14.40;99.90;;;;;;5061509;28;20029;-76
2023/06/22 04:32:02;;;;;;;1999.90;999.90;;;14.30;99.90;;;;;;5045325;28;20059;-73
2023/06/22 04:34:30;;;;;;;1999.90;999.90;;;14.20;99.90;;;;;;5055843;28;20033;-74
2023/06/22 04:36:58;;;;;;;1999.90;999.90;;;14.20;99.90;;;;;;5053708;28;20075;-77
2023/06/22 04:39:26;;;;;;;1999.90;999.90;;;14.20;99.90;;;;;;5072264;28;20028;-75
2023/06/22 04:41:59;;;;;;;1999.90;999.90;;;14.10;99.90;;;;;;5060197;28;20049;-72
2023/06/22 04:44:28;;;;;;;1999.90;999.90;;;14.10;99.90;;;;;;5059979;28;20255;-74
2023/06/22 04:47:01;;;;;;;1999.90;999.90;;;14.10;99.90;;;;;;5058632;28;20040;-75
2023/06/22 04:49:32;;;;;;;1999.90;999.90;;;14.10;99.90;;;;;;5051007;28;20357;-75
2023/06/22 04:52:01;;;;;;;1999.90;999.90;;;14.10;99.90;;;;;;5054663;28;20037;-74
2023/06/22 04:54:29;;;;;;;1999.90;999.90;;;14.00;99.90;;;;;;5061342;28;20029;-73
2023/06/22 04:56:59;;;;;;;1999.90;999.90;;;14.00;99.90;;;;;;5054581;28;20025;-73
2023/06/22 04:59:29;;;;;;;1999.90;999.90;;;13.90;99.90;;;;;;5056147;28;20027;-74
2023/06/22 05:01:58;;;;;;;1999.90;999.90;;;13.90;99.90;;;;;;5052227;28;20111;-73
2023/06/22 05:04:27;;;;;;;1999.90;999.90;;;13.80;99.90;;;;;;5058955;28;20040;-75
2023/06/22 05:06:55;;;;;;;1999.90;999.90;;;13.80;99.90;;;;;;5054013;28;20033;-74
2023/06/22 05:09:24;;;;;;;1999.90;999.90;;;13.80;99.90;;;;;;5055179;28;20048;-74
2023/06/22 05:11:52;;;;;;;1999.90;999.90;;;13.80;99.90;;;;;;5056866;28;20090;-73
2023/06/22 05:14:20;;;;;;;1999.90;999.90;;;13.70;99.90;;;;;;5052857;28;20025;-73
2023/06/22 05:16:47;;;;;;;1999.90;999.90;;;13.80;99.90;;;;;;5057418;28;20069;-72
2023/06/22 05:19:14;;;;;;;1999.90;999.90;;;13.80;99.90;;;;;;5057159;28;20029;-73
2023/06/22 05:21:43;;;;;;;1999.90;999.90;;;13.80;99.90;;;;;;5055124;28;20115;-71
2023/06/22 05:24:10;;;;;;;1999.90;999.90;;;13.70;99.90;;;;;;5055677;28;20029;-74
2023/06/22 05:26:38;;;;;;;1999.90;999.90;;;13.60;99.90;;;;;;5053403;28;20558;-73
2023/06/22 05:29:06;;;;;;;1999.90;999.90;;;13.50;99.90;;;;;;5051666;28;20108;-75
2023/06/22 05:31:34;;;;;;;1999.90;999.90;;;13.40;99.90;;;;;;5055552;28;20112;-73
2023/06/22 05:34:01;;;;;;;1999.90;999.90;;;13.30;99.90;;;;;;5056498;28;20116;-77
2023/06/22 05:36:28;;;;;;;1999.90;999.90;;;13.20;99.90;;;;;;5056049;28;20074;-75
2023/06/22 05:38:58;;;;;;;1999.90;999.90;;;13.00;99.90;;;;;;5058866;28;20031;-73
2023/06/22 05:41:25;;;;;;;1999.90;999.90;;;12.90;99.90;;;;;;5050561;28;20041;-75
2023/06/22 05:43:53;;;;;;;1999.90;999.90;;;12.90;99.90;;;;;;5049305;28;20046;-73
2023/06/22 05:46:21;;;;;;;1999.90;999.90;;;12.80;99.90;;;;;;5059542;28;20021;-73
2023/06/22 05:48:48;;;;;;;1999.90;999.90;;;12.60;99.90;;;;;;5055043;28;20029;-74
2023/06/22 05:51:15;;;;;;;1999.90;999.90;;;12.60;99.90;;;;;;5057034;28;20028;-71
2023/06/22 05:53:44;;;;;;;1999.90;999.90;;;12.50;99.90;;;;;;5045699;28;20464;-75
2023/06/22 05:56:11;;;;;;;1999.90;999.90;;;12.50;99.90;;;;;;5057751;28;20399;-71
2023/06/22 05:58:39;;;;;;;1999.90;999.90;;;12.40;99.90;;;;;;5053676;28;20021;-73
2023/06/22 06:01:06;;;;;;;1999.90;999.90;;;12.40;99.90;;;;;;5039623;28;20068;-75
2023/06/22 06:03:33;;;;;;;1999.90;999.90;;;12.30;99.90;;;;;;5050961;28;20180;-74
2023/06/22 06:06:02;;;;;;;1999.90;999.90;;;12.30;99.90;;;;;;5049364;28;20496;-70
2023/06/22 06:08:29;;;;;;;1999.90;999.90;;;12.20;99.90;;;;;;5053561;28;20605;-74
2023/06/22 06:10:57;;;;;;;1999.90;999.90;;;12.10;99.90;;;;;;5048451;28;20113;-75
2023/06/22 06:13:24;;;;;;;1999.90;999.90;;;12.10;99.90;;;;;;5056963;28;20032;-76
2023/06/22 06:15:54;;;;;;;1999.90;999.90;;;12.00;99.90;;;;;;5056660;28;20044;-70
2023/06/22 06:18:22;;;;;;;1999.90;999.90;;;12.00;99.90;;;;;;5061743;28;20027;-73
2023/06/22 06:20:49;;;;;;;1999.90;999.90;;;12.00;99.90;;;;;;5051898;28;20029;-72
2023/06/22 06:23:16;;;;;;;1999.90;999.90;;;12.00;99.90;;;;;;5047911;28;20451;-74
2023/06/22 06:25:44;;;;;;;1999.90;999.90;;;12.00;99.90;;;;;;5056059;28;20043;-74
2023/06/22 06:28:11;;;;;;;1999.90;999.90;;;11.90;99.90;;;;;;5056643;28;20028;-75
2023/06/22 06:30:38;;;;;;;1999.90;999.90;;;11.90;99.90;;;;;;5051776;28;20120;-78
2023/06/22 06:33:08;;;;;;;1999.90;999.90;;;11.80;99.90;;;;;;5056704;28;20487;-73
2023/06/22 06:35:37;;;;;;;1999.90;999.90;;;11.80;99.90;;;;;;5060487;28;20025;-74
2023/06/22 06:38:04;;;;;;;1999.90;999.90;;;11.70;99.90;;;;;;5048261;28;20029;-74
2023/06/22 06:40:32;;;;;;;1999.90;999.90;;;11.70;99.90;;;;;;5050408;28;20037;-71
2023/06/22 06:42:59;;;;;;;1999.90;999.90;;;11.70;99.90;;;;;;5051592;28;20048;-71
2023/06/22 06:45:28;;;;;;;1999.90;999.90;;;11.60;99.90;;;;;;5055868;28;20460;-72
2023/06/22 06:47:55;;;;;;;1999.90;999.90;;;11.70;99.90;;;;;;5053228;28;20025;-74
2023/06/22 06:50:23;;;;;;;1999.90;999.90;;;11.60;99.90;;;;;;5053318;28;20483;-76
2023/06/22 06:52:51;;;;;;;1999.90;999.90;;;11.70;99.90;;;;;;5056615;28;20017;-72
2023/06/22 06:55:19;;;;;;;1999.90;999.90;;;11.70;99.90;;;;;;5054355;28;20101;-75
2023/06/22 06:57:49;;;;;;;1999.90;999.90;;;11.70;99.90;;;;;;5054002;28;20406;-71
2023/06/22 07:00:17;;;;;;;1999.90;999.90;;;11.70;99.90;;;;;;5049255;28;20504;-72
2023/06/22 07:02:48;;;;;;;1999.90;999.90;;;11.60;99.90;;;;;;5052153;28;20028;-76
2023/06/22 07:05:15;;;;;;;1999.90;999.90;;;11.60;99.90;;;;;;5059462;28;20056;-72
2023/06/22 07:07:43;;;;;;;1999.90;999.90;;;11.60;99.90;;;;;;5051447;28;20025;-78
2023/06/22 07:10:11;;;;;;;1999.90;999.90;;;11.60;99.90;;;;;;5055746;28;20052;-75
2023/06/22 07:12:38;;;;;;;1999.90;999.90;;;11.60;99.90;;;;;;5044744;28;20037;-72
2023/06/22 07:15:11;;;;;;;1999.90;999.90;;;11.60;99.90;;;;;;5051688;28;20039;-72
2023/06/22 07:17:40;;;;;;;1999.90;999.90;;;11.50;99.90;;;;;;5052438;28;20055;-76
2023/06/22 07:20:14;;;;;;;1999.90;999.90;;;11.50;99.90;;;;;;5044571;28;20112;-74
2023/06/22 07:22:45;;;;;;;1999.90;999.90;;;11.50;99.90;;;;;;5051587;28;20548;-70
2023/06/22 07:25:17;;;;;;;1999.90;999.90;;;11.40;99.90;;;;;;5053782;28;20029;-71
2023/06/22 07:28:01;;;;;;;1999.90;999.90;;;11.40;99.90;;;;;;5045465;28;20021;-71
2023/06/22 07:30:30;;;;;;;1999.90;999.90;;;11.30;99.90;;;;;;5045340;28;20025;-76
2023/06/22 07:32:58;;;;;;;1999.90;999.90;;;11.30;99.90;;;;;;5050661;28;20039;-74
2023/06/22 07:35:26;;;;;;;1999.90;999.90;;;11.30;99.90;;;;;;5054669;28;20036;-72
2023/06/22 07:37:53;;;;;;;1999.90;999.90;;;11.30;99.90;;;;;;5052565;28;20543;-75
2023/06/22 07:40:20;;;;;;;1999.90;999.90;;;11.30;99.90;;;;;;5057193;28;20427;-76
2023/06/22 07:42:52;;;;;;;1999.90;999.90;;;11.30;99.90;;;;;;5052252;28;20403;-73
2023/06/22 07:45:19;;;;;;;1999.90;999.90;;;11.30;99.90;;;;;;5045316;28;20021;-72
2023/06/22 07:47:47;;;;;;;1999.90;999.90;;;11.30;99.90;;;;;;5042225;28;20029;-72
2023/06/22 07:50:14;;;;;;;1999.90;999.90;;;11.20;99.90;;;;;;5043651;28;20040;-75
2023/06/22 07:52:41;;;;;;;1999.90;999.90;;;11.20;99.90;;;;;;5047789;28;20029;-71
2023/06/22 07:55:09;;;;;;;1999.90;999.90;;;11.20;99.90;;;;;;5048376;28;20049;-74
2023/06/22 07:57:36;;;;;;;1999.90;999.90;;;11.30;99.90;;;;;;5062843;28;20029;-70
2023/06/22 08:00:16;;;;;;;1999.90;999.90;;;11.30;99.90;;;;;;5050120;28;20059;-74
2023/06/22 08:02:45;;;;;;;1999.90;999.90;;;11.30;99.90;;;;;;5052596;28;20020;-74
2023/06/22 08:05:14;;;;;;;1999.90;999.90;;;11.30;99.90;;;;;;5063319;28;21121;-73
2023/06/22 08:07:43;;;;;;;1999.90;999.90;;;11.30;99.90;;;;;;5043895;28;20715;-75
2023/06/22 08:10:14;;;;;;;1999.90;999.90;;;11.30;99.90;;;;;;5055242;28;20550;-76
2023/06/22 08:12:41;;;;;;;1999.90;999.90;;;11.30;99.90;;;;;;5059776;28;20024;-74
2023/06/22 08:15:09;;;;;;;1999.90;999.90;;;11.30;99.90;;;;;;5060357;28;20033;-77
2023/06/22 08:17:40;;;;;;;1999.90;999.90;;;11.30;99.90;;;;;;5062918;28;20059;-72
2023/06/22 08:20:14;;;;;;;1999.90;999.90;;;11.30;99.90;;;;;;5060877;28;20032;-70
2023/06/22 08:22:44;;;;;;;1999.90;999.90;;;11.30;99.90;;;;;;5061673;28;20028;-74
2023/06/22 08:25:13;;;;;;;1999.90;999.90;;;11.30;99.90;;;;;;5063666;28;20025;-75
2023/06/22 08:27:40;;;;;;;1999.90;999.90;;;11.20;99.90;;;;;;5054888;28;20013;-76
2023/06/22 08:30:10;;;;;;;1999.90;999.90;;;11.20;99.90;;;;;;5053263;28;20760;-76
2023/06/22 08:32:38;;;;;;;1999.90;999.90;;;11.20;99.90;;;;;;5060353;28;20087;-76
2023/06/22 08:35:09;;;;;;;1999.90;999.90;;;11.20;99.90;;;;;;5056906;28;20029;-72
2023/06/22 08:37:38;;;;;;;1999.90;999.90;;;11.10;99.90;;;;;;5062851;28;20028;-74
2023/06/22 08:40:09;;;;;;;1999.90;999.90;;;11.10;99.90;;;;;;5055774;28;20032;-76
2023/06/22 08:42:42;;;;;;;1999.90;999.90;;;11.20;99.90;;;;;;5057819;28;20040;-71
2023/06/22 08:45:10;;;;;;;1999.90;999.90;;;11.30;99.90;;;;;;5052355;28;20047;-74
2023/06/22 08:47:37;;;;;;;1999.90;999.90;;;11.30;99.90;;;;;;5057192;28;20035;-75
2023/06/22 08:50:07;;;;;;;1999.90;999.90;;;11.30;99.90;;;;;;5059681;28;20052;-71
2023/06/22 08:52:35;;;;;;;1999.90;999.90;;;11.30;99.90;;;;;;5057108;28;20023;-74
2023/06/22 08:55:02;;;;;;;1999.90;999.90;;;11.20;99.90;;;;;;5059171;28;20501;-75
2023/06/22 08:57:30;;;;;;;1999.90;999.90;;;11.20;99.90;;;;;;5063129;28;20044;-72
2023/06/22 08:59:58;;;;;;;1999.90;999.90;;;11.20;99.90;;;;;;5054101;28;20059;-75
2023/06/22 09:02:30;;;;;;;1999.90;999.90;;;11.20;99.90;;;;;;5061440;28;20098;-77
2023/06/22 09:05:01;;;;;;;1999.90;999.90;;;11.20;99.90;;;;;;5061341;28;20048;-77
2023/06/22 09:07:28;;;;;;;1999.90;999.90;;;11.20;99.90;;;;;;5059311;28;20028;-73
2023/06/22 09:09:57;;;;;;;1999.90;999.90;;;11.20;99.90;;;;;;5059592;28;20033;-74
2023/06/22 09:12:26;;;;;;;1999.90;999.90;;;11.10;99.90;;;;;;5054446;28;20395;-74
2023/06/22 09:14:54;;;;;;;1999.90;999.90;;;11.10;99.90;;;;;;5063382;28;20369;-78
2023/06/22 09:17:22;;;;;;;1999.90;999.90;;;11.10;99.90;;;;;;5056332;28;20036;-72
2023/06/22 09:19:49;;;;;;;1999.90;999.90;;;11.10;99.90;;;;;;5055528;28;20507;-73
2023/06/22 09:22:17;;;;;;;1999.90;999.90;;;11.10;99.90;;;;;;5055915;28;20040;-74
2023/06/22 09:24:44;;;;;;;1999.90;999.90;;;11.00;99.90;;;;;;5061203;28;20366;-75
2023/06/22 09:27:11;;;;;;;1999.90;999.90;;;11.00;99.90;;;;;;5052353;28;20547;-75
2023/06/22 09:29:39;;;;;;;1999.90;999.90;;;10.90;99.90;;;;;;5054082;28;20057;-76
2023/06/22 09:32:07;;;;;;;1999.90;999.90;;;10.90;99.90;;;;;;5048700;28;20414;-75
2023/06/22 09:34:34;;;;;;;1999.90;999.90;;;10.80;99.90;;;;;;5054747;28;20048;-76
2023/06/22 09:37:02;;;;;;;1999.90;999.90;;;10.80;99.90;;;;;;5060257;28;20109;-75
2023/06/22 09:39:29;;;;;;;1999.90;999.90;;;10.80;99.90;;;;;;5062004;28;20070;-73
2023/06/22 09:41:59;;;;;;;1999.90;999.90;;;10.80;99.90;;;;;;5057880;28;20490;-74
2023/06/22 09:44:26;;;;;;;1999.90;999.90;;;10.80;99.90;;;;;;5056656;28;20032;-74
2023/06/22 09:46:53;;;;;;;1999.90;999.90;;;10.80;99.90;;;;;;5053888;28;20095;-76
2023/06/22 09:49:21;;;;;;;1999.90;999.90;;;10.80;99.90;;;;;;5056309;28;20020;-76
2023/06/22 09:51:49;;;;;;;1999.90;999.90;;;10.80;99.90;;;;;;5056385;28;20373;-75
2023/06/22 09:54:16;;;;;;;1999.90;999.90;;;10.80;99.90;;;;;;5061041;28;20036;-75
2023/06/22 09:56:44;;;;;;;1999.90;999.90;;;10.80;99.90;;;;;;5061664;28;20051;-76
2023/06/22 09:59:11;;;;;;;1999.90;999.90;;;10.80;99.90;;;;;;5055869;28;20029;-75
2023/06/22 10:01:38;;;;;;;1999.90;999.90;;;10.70;99.90;;;;;;5060288;28;20033;-72
2023/06/22 10:04:06;;;;;;;1999.90;999.90;;;10.70;99.90;;;;;;5063264;28;20495;-75
2023/06/22 10:06:33;;;;;;;1999.90;999.90;;;10.70;99.90;;;;;;5058373;28;20037;-71
2023/06/22 10:09:00;;;;;;;1999.90;999.90;;;10.60;99.90;;;;;;5051393;28;20028;-71
2023/06/22 10:11:30;;;;;;;1999.90;999.90;;;10.60;99.90;;;;;;5055885;28;20372;-71
2023/06/22 10:13:57;;;;;;;1999.90;999.90;;;10.60;99.90;;;;;;5053008;28;20033;-73
2023/06/22 10:16:32;;;;;;;1999.90;999.90;;;10.60;99.90;;;;;;5061188;28;20043;-73
2023/06/22 10:18:59;;;;;;;1999.90;999.90;;;10.70;99.90;;;;;;5048454;28;20029;-71
2023/06/22 10:21:30;;;;;;;1999.90;999.90;;;10.70;99.90;;;;;;5057062;28;20041;-72
2023/06/22 10:23:58;;;;;;;1999.90;999.90;;;10.70;99.90;;;;;;5046000;28;20062;-71
2023/06/22 10:26:28;;;;;;;1999.90;999.90;;;10.70;99.90;;;;;;5055825;28;20029;-72
2023/06/22 10:28:56;;;;;;;1999.90;999.90;;;10.70;99.90;;;;;;5054375;28;20488;-72
2023/06/22 10:31:23;;;;;;;1999.90;999.90;;;10.70;99.90;;;;;;5048652;28;20052;-72
2023/06/22 10:33:50;;;;;;;1999.90;999.90;;;10.70;99.90;;;;;;5057706;28;20507;-72
2023/06/22 10:36:18;;;;;;;1999.90;999.90;;;10.70;99.90;;;;;;5052246;28;20074;-71
2023/06/22 10:38:46;;;;;;;1999.90;999.90;;;10.70;99.90;;;;;;5053154;28;20110;-72
2023/06/22 10:41:14;;;;;;;1999.90;999.90;;;10.70;99.90;;;;;;5053797;28;20025;-71
2023/06/22 10:43:41;;;;;;;1999.90;999.90;;;10.70;99.90;;;;;;5050792;28;20037;-73
2023/06/22 10:46:10;;;;;;;1999.90;999.90;;;10.70;99.90;;;;;;5052610;28;20024;-72
2023/06/22 10:48:37;;;;;;;1999.90;999.90;;;10.70;99.90;;;;;;5071195;28;20692;-72
2023/06/22 10:51:04;;;;;;;1999.90;999.90;;;10.70;99.90;;;;;;5058926;28;20078;-72
2023/06/22 10:53:33;;;;;;;1999.90;999.90;;;10.70;99.90;;;;;;5058196;28;20029;-72
2023/06/22 10:56:03;;;;;;;1999.90;999.90;;;10.70;99.90;;;;;;5051391;28;20025;-75
2023/06/22 10:58:30;;;;;;;1999.90;999.90;;;10.70;99.90;;;;;;5049200;28;20070;-72
2023/06/22 11:00:59;;;;;;;1999.90;999.90;;;10.70;99.90;;;;;;5046903;28;20025;-75
2023/06/22 11:03:26;;;;;;;1999.90;999.90;;;10.70;99.90;;;;;;5052159;28;20115;-71
2023/06/22 11:05:53;;;;;;;1999.90;999.90;;;10.70;99.90;;;;;;5051151;28;20040;-74
2023/06/22 11:08:24;;;;;;;1999.90;999.90;;;10.70;99.90;;;;;;5048321;28;20028;-70
2023/06/22 11:10:52;;;;;;;1999.90;999.90;;;10.70;99.90;;;;;;5048405;28;20032;-72
2023/06/22 11:13:20;;;;;;;1999.90;999.90;;;10.60;99.90;;;;;;5056522;28;20094;-71
2023/06/22 11:15:47;;;;;;;1999.90;999.90;;;10.60;99.90;;;;;;5054582;28;20037;-72
2023/06/22 11:18:15;;;;;;;1999.90;999.90;;;10.60;99.90;;;;;;5054335;28;20032;-72
2023/06/22 11:20:43;;;;;;;1999.90;999.90;;;10.60;99.90;;;;;;5051196;28;20028;-70
2023/06/22 11:23:12;;;;;;;1999.90;999.90;;;10.60;99.90;;;;;;5051743;28;20029;-72
2023/06/22 11:25:41;;;;;;;1999.90;999.90;;;10.60;99.90;;;;;;5054214;28;20047;-70
2023/06/22 11:28:09;;;;;;;1999.90;999.90;;;10.60;99.90;;;;;;5061418;28;20034;-72
2023/06/22 11:30:36;;;;;;;1999.90;999.90;;;10.60;99.90;;;;;;5053650;28;20082;-69
2023/06/22 11:33:03;;;;;;;1999.90;999.90;;;10.60;99.90;;;;;;5055233;28;20017;-69
2023/06/22 11:35:31;;;;;;;1999.90;999.90;;;10.60;99.90;;;;;;5048205;28;20111;-70
2023/06/22 11:37:58;;;;;;;1999.90;999.90;;;10.60;99.90;;;;;;5055535;28;20486;-70
2023/06/22 11:40:25;;;;;;;1999.90;999.90;;;10.60;99.90;;;;;;5046564;28;20025;-70
2023/06/22 11:42:53;;;;;;;1999.90;999.90;;;10.60;99.90;;;;;;5057787;28;20029;-68
2023/06/22 11:45:20;;;;;;;1999.90;999.90;;;10.60;99.90;;;;;;5053174;28;20036;-71
2023/06/22 11:47:48;;;;;;;1999.90;999.90;;;10.60;99.90;;;;;;5055780;28;20040;-71
2023/06/22 11:50:15;;;;;;;1999.90;999.90;;;10.50;99.90;;;;;;5052172;28;20067;-72
2023/06/22 11:52:42;;;;;;;1999.90;999.90;;;10.50;99.90;;;;;;5047240;28;20032;-71
2023/06/22 11:55:10;;;;;;;1999.90;999.90;;;10.50;99.90;;;;;;5058422;28;20033;-73
2023/06/22 11:57:39;;;;;;;1999.90;999.90;;;10.40;99.90;;;;;;5053049;28;20035;-74
2023/06/22 12:00:16;;;;;;;1999.90;999.90;;;10.40;99.90;;;;;;5061611;28;20025;-72
2023/06/22 12:02:44;;;;;;;1999.90;999.90;;;10.30;99.90;;;;;;5057227;28;20491;-71
2023/06/22 12:05:12;;;;;;;1999.90;999.90;;;10.30;99.90;;;;;;5056150;28;20495;-72
2023/06/22 12:07:39;;;;;;;1999.90;999.90;;;10.30;99.90;;;;;;5052418;28;20842;-71